Time;durP1;ratioP1;P1;durP2;ratioP2;P2;SDS_P1;SDS_P2;PMS_P1;PMS_P2;Temp;Humidity;BMP_temperature;BMP_pressure;BME280_temperature;BME280_humidity;BME280_pressure;Samples;Min_cycle;Max_cycle;Signal;HPM_P1;HPM_P2
2022/02/24 00:00:17;;;;;;;14.30;7.53;;;1.50;99.90;;;;;;2066956;28;20060;-74
2022/02/24 00:01:18;;;;;;;14.85;7.72;;;1.60;99.90;;;;;;2052744;28;20085;-74
2022/02/24 00:02:19;;;;;;;15.57;8.00;;;1.50;99.90;;;;;;2057822;28;20030;-73
2022/02/24 00:03:23;;;;;;;18.30;8.52;;;1.50;99.90;;;;;;2048205;29;20474;-73
2022/02/24 00:04:23;;;;;;;19.00;9.50;;;1.50;99.90;;;;;;2047488;28;20031;-74
2022/02/24 00:05:25;;;;;;;18.17;9.30;;;1.50;99.90;;;;;;2060367;28;20031;-73
2022/02/24 00:06:29;;;;;;;17.67;8.88;;;1.50;99.90;;;;;;2071216;28;20441;-73
2022/02/24 00:07:29;;;;;;;18.15;8.90;;;1.50;99.90;;;;;;2073452;28;20136;-76
2022/02/24 00:08:30;;;;;;;19.42;9.20;;;1.40;99.90;;;;;;2077091;28;20076;-73
2022/02/24 00:09:31;;;;;;;19.05;9.32;;;1.40;99.90;;;;;;2067924;28;20038;-73
2022/02/24 00:10:31;;;;;;;20.02;9.40;;;1.40;99.90;;;;;;2067434;28;20054;-74
2022/02/24 00:11:34;;;;;;;19.85;9.60;;;1.40;99.90;;;;;;2059817;28;20082;-73
2022/02/24 00:12:36;;;;;;;19.90;9.27;;;1.40;99.90;;;;;;2063745;28;20039;-74
2022/02/24 00:13:37;;;;;;;20.80;9.18;;;1.40;99.90;;;;;;2067124;28;20026;-74
2022/02/24 00:14:37;;;;;;;21.13;9.00;;;1.40;99.90;;;;;;2063396;28;20109;-75
2022/02/24 00:15:38;;;;;;;18.38;8.63;;;1.40;99.90;;;;;;2051064;28;20038;-73
2022/02/24 00:16:39;;;;;;;18.35;8.55;;;1.30;99.90;;;;;;2059114;28;20023;-72
2022/02/24 00:17:41;;;;;;;19.45;9.25;;;1.30;99.90;;;;;;2060858;28;20382;-73
2022/02/24 00:18:42;;;;;;;16.33;8.30;;;1.30;99.90;;;;;;2054237;28;20717;-73
2022/02/24 00:19:44;;;;;;;20.67;8.80;;;1.30;99.90;;;;;;2048441;28;20038;-74
2022/02/24 00:20:45;;;;;;;16.00;8.57;;;1.30;99.90;;;;;;2047372;28;20032;-74
2022/02/24 00:21:46;;;;;;;17.05;8.73;;;1.30;99.90;;;;;;2050573;28;20066;-74
2022/02/24 00:22:47;;;;;;;21.83;10.35;;;1.30;99.90;;;;;;2059095;28;20034;-73
2022/02/24 00:23:48;;;;;;;23.30;11.13;;;1.30;99.90;;;;;;2068097;28;20094;-74
2022/02/24 00:24:49;;;;;;;20.33;10.35;;;1.30;99.90;;;;;;2059893;28;20633;-73
2022/02/24 00:25:49;;;;;;;26.02;10.60;;;1.30;99.90;;;;;;2066073;28;20064;-74
2022/02/24 00:26:50;;;;;;;26.48;10.20;;;1.30;99.90;;;;;;2061871;28;20110;-73
2022/02/24 00:27:51;;;;;;;20.38;10.40;;;1.30;99.90;;;;;;2066333;28;20034;-72
2022/02/24 00:28:52;;;;;;;21.00;9.98;;;1.20;99.90;;;;;;2064269;28;20544;-73
2022/02/24 00:29:53;;;;;;;19.30;9.15;;;1.20;99.90;;;;;;2057171;28;20058;-74
2022/02/24 00:30:54;;;;;;;21.05;10.32;;;1.20;99.90;;;;;;2051584;28;20159;-72
2022/02/24 00:31:55;;;;;;;22.38;10.32;;;1.20;99.90;;;;;;2064456;28;20473;-73
2022/02/24 00:32:56;;;;;;;21.10;10.68;;;1.20;99.90;;;;;;2052497;28;20023;-72
2022/02/24 00:34:03;;;;;;;22.98;10.70;;;1.20;99.90;;;;;;2047972;28;20058;-73
2022/02/24 00:35:05;;;;;;;20.67;10.48;;;1.20;99.90;;;;;;2061655;28;20102;-73
2022/02/24 00:36:06;;;;;;;22.50;11.10;;;1.20;99.90;;;;;;2064772;28;20018;-73
2022/02/24 00:37:07;;;;;;;19.95;9.80;;;1.20;99.90;;;;;;2062806;28;20479;-73
2022/02/24 00:38:08;;;;;;;21.95;10.30;;;1.10;99.90;;;;;;2064814;28;20482;-74
2022/02/24 00:39:09;;;;;;;19.23;10.02;;;1.10;99.90;;;;;;2063227;28;20101;-73
2022/02/24 00:40:11;;;;;;;16.98;9.10;;;1.10;99.90;;;;;;2064197;28;20410;-73
2022/02/24 00:41:12;;;;;;;17.25;8.90;;;1.10;99.90;;;;;;2060256;28;20027;-73
2022/02/24 00:42:13;;;;;;;18.92;9.02;;;1.10;99.90;;;;;;2062809;28;20062;-73
2022/02/24 00:43:14;;;;;;;17.58;8.75;;;1.00;99.90;;;;;;2066684;28;20050;-73
2022/02/24 00:44:16;;;;;;;17.80;9.48;;;1.00;99.90;;;;;;2066599;28;20425;-74
2022/02/24 00:45:16;;;;;;;17.00;8.18;;;1.00;99.90;;;;;;2059185;28;20045;-73
2022/02/24 00:46:17;;;;;;;15.10;8.10;;;1.00;99.90;;;;;;2058279;28;20035;-73
2022/02/24 00:47:21;;;;;;;17.00;8.52;;;1.00;99.90;;;;;;2064441;28;20026;-74
2022/02/24 00:48:22;;;;;;;21.77;9.20;;;1.00;99.90;;;;;;2054849;28;20034;-73
2022/02/24 00:49:28;;;;;;;18.40;8.40;;;1.00;99.90;;;;;;2058834;28;20023;-74
2022/02/24 00:50:29;;;;;;;16.85;9.05;;;0.90;99.90;;;;;;2062096;28;20471;-74
2022/02/24 00:51:30;;;;;;;16.30;8.90;;;0.90;99.90;;;;;;2065909;28;20027;-74
2022/02/24 00:52:30;;;;;;;15.65;8.70;;;0.90;99.90;;;;;;2061378;28;20066;-74
2022/02/24 00:53:31;;;;;;;16.10;8.20;;;0.90;99.90;;;;;;2066897;28;20049;-75
2022/02/24 00:54:32;;;;;;;15.63;8.85;;;0.80;99.90;;;;;;2064232;28;20038;-75
2022/02/24 00:55:33;;;;;;;17.42;8.60;;;0.80;99.90;;;;;;2066252;28;20026;-74
2022/02/24 00:56:34;;;;;;;19.52;8.20;;;0.80;99.90;;;;;;2068621;28;20018;-77
2022/02/24 00:57:34;;;;;;;15.45;7.88;;;0.80;99.90;;;;;;2066516;28;20027;-74
2022/02/24 00:58:35;;;;;;;16.85;8.23;;;0.80;99.90;;;;;;2063437;28;20019;-75
2022/02/24 00:59:36;;;;;;;14.43;7.63;;;0.80;99.90;;;;;;2066296;28;20530;-74
2022/02/24 01:00:37;;;;;;;15.20;7.50;;;0.80;99.90;;;;;;2059145;28;20050;-75
2022/02/24 01:01:42;;;;;;;17.25;7.57;;;0.80;99.90;;;;;;2066289;28;20065;-75
2022/02/24 01:02:43;;;;;;;16.20;7.68;;;0.70;99.90;;;;;;2051733;28;20460;-74
2022/02/24 01:03:43;;;;;;;14.27;7.38;;;0.70;99.90;;;;;;2049739;29;20103;-75
2022/02/24 01:04:44;;;;;;;13.85;7.68;;;0.70;99.90;;;;;;2049422;28;20031;-74
2022/02/24 01:05:44;;;;;;;12.35;7.57;;;0.70;99.90;;;;;;2050045;28;20102;-74
2022/02/24 01:06:45;;;;;;;14.07;7.63;;;0.70;99.90;;;;;;2050112;28;20122;-75
2022/02/24 01:07:46;;;;;;;12.82;7.72;;;0.70;99.90;;;;;;2050139;29;20030;-75
2022/02/24 01:08:46;;;;;;;17.08;8.32;;;0.70;99.90;;;;;;2042621;29;20067;-73
2022/02/24 01:09:47;;;;;;;14.18;7.57;;;0.70;99.90;;;;;;2050969;28;20027;-75
2022/02/24 01:10:48;;;;;;;15.43;7.47;;;0.70;99.90;;;;;;2052348;28;20084;-74
2022/02/24 01:11:49;;;;;;;14.25;7.47;;;0.70;99.90;;;;;;2051822;28;20043;-74
2022/02/24 01:12:50;;;;;;;14.38;7.78;;;0.70;99.90;;;;;;2059289;28;20038;-74
2022/02/24 01:13:50;;;;;;;16.52;8.18;;;0.70;99.90;;;;;;2051734;28;20023;-74
2022/02/24 01:14:51;;;;;;;15.27;7.97;;;0.60;99.90;;;;;;2043942;29;20023;-75
2022/02/24 01:15:52;;;;;;;13.82;7.35;;;0.70;99.90;;;;;;2051993;29;20650;-74
2022/02/24 01:16:52;;;;;;;13.63;7.18;;;0.60;99.90;;;;;;2051669;28;20031;-75
2022/02/24 01:17:53;;;;;;;15.93;8.00;;;0.60;99.90;;;;;;2050734;28;20020;-74
2022/02/24 01:18:54;;;;;;;14.02;7.78;;;0.60;99.90;;;;;;2049687;28;20027;-75
2022/02/24 01:19:54;;;;;;;16.92;8.35;;;0.60;99.90;;;;;;2056239;28;20098;-74
2022/02/24 01:20:55;;;;;;;18.95;8.05;;;0.60;99.90;;;;;;2056622;28;20029;-75
2022/02/24 01:21:56;;;;;;;16.65;8.48;;;0.60;99.90;;;;;;2048713;29;20236;-74
2022/02/24 01:22:57;;;;;;;16.40;8.50;;;0.60;99.90;;;;;;2041806;29;20058;-74
2022/02/24 01:23:57;;;;;;;15.35;8.00;;;0.70;99.90;;;;;;2049362;28;20027;-72
2022/02/24 01:24:58;;;;;;;17.80;7.88;;;0.70;99.90;;;;;;2050059;28;20027;-73
2022/02/24 01:25:59;;;;;;;14.75;7.95;;;0.70;99.90;;;;;;2050020;28;20667;-73
2022/02/24 01:26:59;;;;;;;17.30;8.18;;;0.70;99.90;;;;;;2051000;28;20032;-74
2022/02/24 01:28:00;;;;;;;16.42;8.40;;;0.70;99.90;;;;;;2050721;28;20042;-73
2022/02/24 01:29:01;;;;;;;16.65;8.38;;;0.60;99.90;;;;;;2058144;28;20023;-72
2022/02/24 01:30:02;;;;;;;18.23;9.80;;;0.60;99.90;;;;;;2058085;28;20050;-72
2022/02/24 01:31:02;;;;;;;16.88;9.60;;;0.60;99.90;;;;;;2057576;28;20482;-74
2022/02/24 01:32:03;;;;;;;18.95;9.32;;;0.60;99.90;;;;;;2058266;28;20035;-72
2022/02/24 01:33:04;;;;;;;16.67;9.13;;;0.60;99.90;;;;;;2050007;28;20031;-73
2022/02/24 01:34:05;;;;;;;16.05;9.50;;;0.60;99.90;;;;;;2049419;29;20031;-73
2022/02/24 01:35:06;;;;;;;18.13;9.15;;;0.60;99.90;;;;;;2050189;28;20092;-74
2022/02/24 01:36:07;;;;;;;15.88;9.52;;;0.50;99.90;;;;;;2049783;28;20111;-73
2022/02/24 01:37:08;;;;;;;18.08;10.05;;;0.50;99.90;;;;;;2058362;28;20034;-75
2022/02/24 01:38:09;;;;;;;15.85;9.30;;;0.50;99.90;;;;;;2051269;29;20031;-74
2022/02/24 01:39:10;;;;;;;16.35;8.93;;;0.50;99.90;;;;;;2058753;28;20506;-74
2022/02/24 01:40:11;;;;;;;17.95;9.27;;;0.50;99.90;;;;;;2058106;28;20137;-72
2022/02/24 01:41:12;;;;;;;16.75;9.23;;;0.50;99.90;;;;;;2050114;28;20436;-72
2022/02/24 01:42:12;;;;;;;16.52;9.75;;;0.50;99.90;;;;;;2057690;28;20030;-76
2022/02/24 01:43:13;;;;;;;16.45;9.27;;;0.40;99.90;;;;;;2057456;28;20116;-74
2022/02/24 01:44:14;;;;;;;15.50;8.85;;;0.40;99.90;;;;;;2049040;28;20042;-77
2022/02/24 01:45:15;;;;;;;16.67;9.38;;;0.40;99.90;;;;;;2056389;28;20055;-73
2022/02/24 01:46:16;;;;;;;16.33;9.05;;;0.40;99.90;;;;;;2056491;28;20438;-74
2022/02/24 01:47:17;;;;;;;16.35;9.25;;;0.40;99.90;;;;;;2049608;28;20035;-73
2022/02/24 01:48:17;;;;;;;18.60;9.15;;;0.40;99.90;;;;;;2057280;28;20035;-73
2022/02/24 01:49:20;;;;;;;19.40;9.70;;;0.40;99.90;;;;;;2056527;28;20110;-75
2022/02/24 01:50:21;;;;;;;17.58;9.38;;;0.40;99.90;;;;;;2056018;28;20031;-73
2022/02/24 01:51:22;;;;;;;16.88;9.25;;;0.30;99.90;;;;;;2048141;29;20049;-76
2022/02/24 01:52:23;;;;;;;17.25;9.88;;;0.30;99.90;;;;;;2048442;28;20509;-74
2022/02/24 01:53:23;;;;;;;17.40;9.60;;;0.30;99.90;;;;;;2056334;28;20031;-74
2022/02/24 01:54:24;;;;;;;18.98;9.50;;;0.30;99.90;;;;;;2055997;28;20030;-74
2022/02/24 01:55:25;;;;;;;18.85;10.15;;;0.30;99.90;;;;;;2048954;28;20395;-73
2022/02/24 01:56:26;;;;;;;16.52;9.40;;;0.20;99.90;;;;;;2048356;28;20387;-73
2022/02/24 01:57:28;;;;;;;21.83;10.00;;;0.20;99.90;;;;;;2048475;29;20039;-73
2022/02/24 01:58:29;;;;;;;18.40;10.00;;;0.20;99.90;;;;;;2049111;28;20067;-73
2022/02/24 01:59:30;;;;;;;19.35;10.02;;;0.20;99.90;;;;;;2048591;28;20019;-74
2022/02/24 02:00:31;;;;;;;20.88;9.95;;;0.20;99.90;;;;;;2048784;29;20039;-74
2022/02/24 02:01:32;;;;;;;19.45;10.43;;;0.20;99.90;;;;;;2048830;28;20027;-74
2022/02/24 02:02:33;;;;;;;21.98;10.27;;;0.20;99.90;;;;;;2048967;28;20086;-75
2022/02/24 02:03:33;;;;;;;27.48;12.10;;;0.20;99.90;;;;;;2048977;28;20031;-73
2022/02/24 02:04:36;;;;;;;26.63;11.40;;;0.20;99.90;;;;;;2048565;28;20031;-74
2022/02/24 02:05:36;;;;;;;32.95;13.10;;;0.20;99.90;;;;;;2048262;28;20083;-73
2022/02/24 02:06:39;;;;;;;30.88;13.00;;;0.10;99.90;;;;;;2048191;29;20032;-74
2022/02/24 02:07:40;;;;;;;33.00;13.27;;;0.10;99.90;;;;;;2048050;29;20772;-75
2022/02/24 02:08:41;;;;;;;31.83;13.30;;;0.10;99.90;;;;;;2048212;29;20019;-74
2022/02/24 02:09:42;;;;;;;27.38;12.18;;;0.10;99.90;;;;;;2048307;28;20682;-73
2022/02/24 02:10:42;;;;;;;28.23;12.18;;;0.00;99.90;;;;;;2048113;29;20044;-73
2022/02/24 02:11:43;;;;;;;28.05;11.50;;;0.00;99.90;;;;;;2048219;29;20062;-73
2022/02/24 02:12:45;;;;;;;29.10;11.50;;;0.00;99.90;;;;;;2056332;28;20034;-74
2022/02/24 02:13:46;;;;;;;23.58;10.65;;;0.00;99.90;;;;;;2056183;28;20031;-72
2022/02/24 02:14:47;;;;;;;23.33;10.63;;;0.00;99.90;;;;;;2047843;28;20038;-74
2022/02/24 02:15:48;;;;;;;24.58;10.75;;;0.00;99.90;;;;;;2048390;29;20035;-74
2022/02/24 02:16:51;;;;;;;20.20;9.38;;;-0.10;99.90;;;;;;2048448;28;20024;-73
2022/02/24 02:17:52;;;;;;;22.40;10.02;;;-0.10;99.90;;;;;;2048722;28;20466;-74
2022/02/24 02:18:53;;;;;;;21.58;9.38;;;-0.10;99.90;;;;;;2056324;28;20030;-73
2022/02/24 02:19:53;;;;;;;20.55;10.20;;;-0.10;99.90;;;;;;2048460;28;20491;-73
2022/02/24 02:20:54;;;;;;;18.50;9.43;;;-0.10;99.90;;;;;;2048218;29;20419;-72
2022/02/24 02:21:55;;;;;;;19.00;9.73;;;-0.10;99.90;;;;;;2048541;28;20042;-72
2022/02/24 02:22:55;;;;;;;20.38;9.80;;;-0.10;99.90;;;;;;2055993;28;20031;-73
2022/02/24 02:23:56;;;;;;;21.10;9.45;;;-0.10;99.90;;;;;;2048174;29;20039;-73
2022/02/24 02:24:59;;;;;;;22.33;10.07;;;-0.10;99.90;;;;;;2048384;28;20095;-73
2022/02/24 02:25:59;;;;;;;19.60;9.77;;;-0.10;99.90;;;;;;2048788;28;20073;-73
2022/02/24 02:27:00;;;;;;;23.15;10.02;;;-0.10;99.90;;;;;;2049624;28;20031;-73
2022/02/24 02:28:02;;;;;;;21.30;10.02;;;-0.10;99.90;;;;;;2048747;28;20435;-73
2022/02/24 02:29:05;;;;;;;20.50;9.70;;;-0.10;99.90;;;;;;2048762;28;20106;-73
2022/02/24 02:30:07;;;;;;;23.20;10.05;;;-0.10;99.90;;;;;;2048317;28;20122;-74
2022/02/24 02:31:08;;;;;;;19.92;9.80;;;-0.20;99.90;;;;;;2048862;28;20479;-73
2022/02/24 02:32:09;;;;;;;19.83;9.75;;;-0.10;99.90;;;;;;2048817;28;20038;-73
2022/02/24 02:33:10;;;;;;;17.27;8.85;;;-0.20;99.90;;;;;;2049497;28;20030;-71
2022/02/24 02:34:12;;;;;;;19.05;8.90;;;-0.20;99.90;;;;;;2049218;28;20114;-73
2022/02/24 02:35:13;;;;;;;17.52;9.38;;;-0.20;99.90;;;;;;2049514;28;20036;-73
2022/02/24 02:36:14;;;;;;;18.25;9.20;;;-0.20;99.90;;;;;;2049337;28;20027;-74
2022/02/24 02:37:14;;;;;;;16.35;9.15;;;-0.20;99.90;;;;;;2048618;28;20027;-73
2022/02/24 02:38:15;;;;;;;16.98;9.15;;;-0.20;99.90;;;;;;2048416;28;20186;-74
2022/02/24 02:39:16;;;;;;;17.67;9.30;;;-0.20;99.90;;;;;;2048464;28;20027;-73
2022/02/24 02:40:17;;;;;;;17.80;9.48;;;-0.20;99.90;;;;;;2047240;28;20745;-73
2022/02/24 02:41:17;;;;;;;17.48;9.60;;;-0.20;99.90;;;;;;2047856;29;20035;-73
2022/02/24 02:42:18;;;;;;;16.95;9.40;;;-0.20;99.90;;;;;;2048372;28;20027;-74
2022/02/24 02:43:18;;;;;;;17.73;9.32;;;-0.20;99.90;;;;;;2055780;28;20485;-73
2022/02/24 02:44:19;;;;;;;14.73;8.90;;;-0.20;99.90;;;;;;2047756;29;20086;-73
2022/02/24 02:45:20;;;;;;;20.58;9.30;;;-0.20;99.90;;;;;;2047840;28;20038;-73
2022/02/24 02:46:21;;;;;;;18.77;9.57;;;-0.20;99.90;;;;;;2048317;28;20038;-74
2022/02/24 02:47:21;;;;;;;21.30;9.75;;;-0.20;99.90;;;;;;2049315;28;20046;-75
2022/02/24 02:48:22;;;;;;;18.08;9.32;;;-0.20;99.90;;;;;;2056558;28;20022;-72
2022/02/24 02:49:22;;;;;;;19.60;9.95;;;-0.10;99.90;;;;;;2048410;28;20550;-74
2022/02/24 02:50:23;;;;;;;22.27;10.05;;;-0.20;99.90;;;;;;2048803;29;20144;-75
2022/02/24 02:51:24;;;;;;;16.85;9.10;;;-0.20;99.90;;;;;;2049409;29;20059;-73
2022/02/24 02:52:24;;;;;;;17.58;9.55;;;-0.20;99.90;;;;;;2049107;28;20038;-75
2022/02/24 02:53:25;;;;;;;20.05;9.57;;;-0.20;99.90;;;;;;2047678;29;20625;-74
2022/02/24 02:54:26;;;;;;;18.92;9.30;;;-0.20;99.90;;;;;;2040404;29;20711;-75
2022/02/24 02:55:26;;;;;;;16.48;8.95;;;-0.20;99.90;;;;;;2048356;28;20030;-71
2022/02/24 02:56:27;;;;;;;17.80;9.55;;;-0.20;99.90;;;;;;2056642;28;20072;-73
2022/02/24 02:57:27;;;;;;;17.90;8.70;;;-0.20;99.90;;;;;;2049463;28;20027;-72
2022/02/24 02:58:28;;;;;;;17.85;9.55;;;-0.30;99.90;;;;;;2056500;28;20030;-73
2022/02/24 02:59:29;;;;;;;17.23;9.25;;;-0.30;99.90;;;;;;2056279;28;20061;-73
2022/02/24 03:00:29;;;;;;;17.40;9.32;;;-0.30;99.90;;;;;;2056688;28;20042;-72
2022/02/24 03:01:30;;;;;;;19.30;9.02;;;-0.30;99.90;;;;;;2048622;29;20034;-73
2022/02/24 03:02:31;;;;;;;16.10;8.80;;;-0.30;99.90;;;;;;2040655;29;20027;-73
2022/02/24 03:03:32;;;;;;;18.70;9.98;;;-0.30;99.90;;;;;;2040672;29;20122;-72
2022/02/24 03:04:32;;;;;;;16.23;9.27;;;-0.30;99.90;;;;;;2048348;28;20043;-72
2022/02/24 03:05:33;;;;;;;17.85;9.43;;;-0.30;99.90;;;;;;2056514;28;20035;-72
2022/02/24 03:06:34;;;;;;;18.75;9.15;;;-0.40;99.90;;;;;;2048450;29;20407;-73
2022/02/24 03:07:35;;;;;;;17.90;9.77;;;-0.40;99.90;;;;;;2048275;28;20023;-73
2022/02/24 03:08:35;;;;;;;18.30;9.27;;;-0.40;99.90;;;;;;2048395;28;20583;-72
2022/02/24 03:09:36;;;;;;;17.55;9.43;;;-0.40;99.90;;;;;;2047967;29;20043;-73
2022/02/24 03:10:36;;;;;;;18.10;9.32;;;-0.40;99.90;;;;;;2056473;28;20093;-72
2022/02/24 03:11:37;;;;;;;18.13;9.23;;;-0.40;99.90;;;;;;2057513;28;20070;-71
2022/02/24 03:12:38;;;;;;;17.40;9.65;;;-0.40;99.90;;;;;;2050283;28;20110;-72
2022/02/24 03:13:39;;;;;;;20.75;8.90;;;-0.40;99.90;;;;;;2057188;28;20086;-73
2022/02/24 03:14:39;;;;;;;17.33;9.32;;;-0.40;99.90;;;;;;2056750;28;20057;-73
2022/02/24 03:15:41;;;;;;;17.80;9.43;;;-0.40;99.90;;;;;;2057409;28;20023;-73
2022/02/24 03:16:41;;;;;;;17.98;8.98;;;-0.40;99.90;;;;;;2049660;29;20027;-73
2022/02/24 03:17:43;;;;;;;16.10;9.05;;;-0.40;99.90;;;;;;2049564;29;20039;-72
2022/02/24 03:18:44;;;;;;;18.40;9.45;;;-0.50;99.90;;;;;;2049339;29;20027;-72
2022/02/24 03:19:44;;;;;;;16.88;8.77;;;-0.40;99.90;;;;;;2041545;29;20102;-75
2022/02/24 03:20:45;;;;;;;16.65;9.15;;;-0.40;99.90;;;;;;2033415;29;20025;-74
2022/02/24 03:21:45;;;;;;;18.63;9.55;;;-0.50;99.90;;;;;;2040617;29;20023;-74
2022/02/24 03:22:46;;;;;;;19.92;9.60;;;-0.50;99.90;;;;;;2048631;29;20039;-74
2022/02/24 03:23:47;;;;;;;19.60;9.57;;;-0.50;99.90;;;;;;2047993;29;20043;-74
2022/02/24 03:24:47;;;;;;;18.08;9.73;;;-0.50;99.90;;;;;;2047444;28;20563;-74
2022/02/24 03:25:49;;;;;;;19.58;9.60;;;-0.50;99.90;;;;;;2055641;28;20023;-73
2022/02/24 03:26:49;;;;;;;16.73;9.50;;;-0.50;99.90;;;;;;2056052;28;20117;-73
2022/02/24 03:27:50;;;;;;;19.33;10.40;;;-0.50;99.90;;;;;;2056381;28;20107;-73
2022/02/24 03:28:52;;;;;;;18.08;9.55;;;-0.50;99.90;;;;;;2048505;28;20039;-73
2022/02/24 03:29:52;;;;;;;18.08;9.75;;;-0.50;99.90;;;;;;2048042;28;20031;-73
2022/02/24 03:30:54;;;;;;;20.27;9.98;;;-0.50;99.90;;;;;;2055912;28;20073;-73
2022/02/24 03:31:54;;;;;;;17.02;9.27;;;-0.50;99.90;;;;;;2048054;28;20550;-73
2022/02/24 03:32:55;;;;;;;17.25;9.15;;;-0.60;99.90;;;;;;2049632;28;20027;-73
2022/02/24 03:33:57;;;;;;;16.23;9.55;;;-0.60;99.90;;;;;;2050195;28;20051;-73
2022/02/24 03:34:57;;;;;;;18.33;9.30;;;-0.60;99.90;;;;;;2057623;28;20027;-73
2022/02/24 03:35:58;;;;;;;20.20;9.98;;;-0.60;99.90;;;;;;2057691;28;20541;-74
2022/02/24 03:36:59;;;;;;;17.75;9.57;;;-0.60;99.90;;;;;;2049822;28;20034;-73
2022/02/24 03:38:00;;;;;;;17.75;9.48;;;-0.60;99.90;;;;;;2049772;28;20083;-73
2022/02/24 03:39:00;;;;;;;16.92;9.00;;;-0.60;99.90;;;;;;2049795;29;20079;-73
2022/02/24 03:40:02;;;;;;;17.17;9.13;;;-0.60;99.90;;;;;;2049429;28;20431;-72
2022/02/24 03:41:02;;;;;;;18.30;9.43;;;-0.60;99.90;;;;;;2057560;28;20387;-75
2022/02/24 03:42:04;;;;;;;18.42;9.52;;;-0.60;99.90;;;;;;2049170;29;20027;-73
2022/02/24 03:43:05;;;;;;;20.92;9.73;;;-0.60;99.90;;;;;;2049285;29;20066;-75
2022/02/24 03:44:05;;;;;;;23.30;10.60;;;-0.60;99.90;;;;;;2056735;28;20027;-74
2022/02/24 03:45:07;;;;;;;27.38;10.23;;;-0.60;99.90;;;;;;2049162;28;20031;-74
2022/02/24 03:46:07;;;;;;;24.15;10.27;;;-0.70;99.90;;;;;;2048976;29;20090;-74
2022/02/24 03:47:08;;;;;;;34.17;11.25;;;-0.70;99.90;;;;;;2041386;29;20511;-73
2022/02/24 03:48:09;;;;;;;24.45;9.95;;;-0.70;99.90;;;;;;2041555;29;20138;-74
2022/02/24 03:49:10;;;;;;;23.73;9.48;;;-0.70;99.90;;;;;;2050113;28;20483;-73
2022/02/24 03:50:13;;;;;;;21.23;9.82;;;-0.70;99.90;;;;;;2057470;28;20051;-74
2022/02/24 03:51:16;;;;;;;21.30;9.48;;;-0.60;99.90;;;;;;2049521;29;20063;-74
2022/02/24 03:52:17;;;;;;;17.70;9.32;;;-0.60;99.90;;;;;;2041448;29;20032;-73
2022/02/24 03:53:18;;;;;;;18.80;9.40;;;-0.70;99.90;;;;;;2049116;29;20090;-73
2022/02/24 03:54:19;;;;;;;22.85;10.30;;;-0.70;99.90;;;;;;2048826;29;20122;-74
2022/02/24 03:55:20;;;;;;;28.40;10.93;;;-0.70;99.90;;;;;;2049094;28;20027;-73
2022/02/24 03:56:21;;;;;;;33.28;11.65;;;-0.70;99.90;;;;;;2056928;28;20123;-74
2022/02/24 03:57:21;;;;;;;31.13;12.00;;;-0.70;99.90;;;;;;2056836;28;20494;-74
2022/02/24 03:58:22;;;;;;;30.08;11.05;;;-0.70;99.90;;;;;;2056883;28;20029;-74
2022/02/24 03:59:23;;;;;;;34.97;11.60;;;-0.70;99.90;;;;;;2056706;28;20101;-72
2022/02/24 04:00:24;;;;;;;32.22;11.80;;;-0.70;99.90;;;;;;2056958;28;20038;-73
2022/02/24 04:01:25;;;;;;;33.45;11.85;;;-0.70;99.90;;;;;;2057160;28;20117;-73
2022/02/24 04:02:25;;;;;;;33.50;11.73;;;-0.70;99.90;;;;;;2057189;28;20037;-74
2022/02/24 04:03:26;;;;;;;29.05;11.38;;;-0.70;99.90;;;;;;2049028;28;20870;-74
2022/02/24 04:04:27;;;;;;;27.52;10.77;;;-0.70;99.90;;;;;;2041651;29;20036;-73
2022/02/24 04:05:27;;;;;;;26.63;10.98;;;-0.70;99.90;;;;;;2042074;29;20483;-71
2022/02/24 04:06:28;;;;;;;27.38;11.15;;;-0.70;99.90;;;;;;2049802;29;20043;-72
2022/02/24 04:07:29;;;;;;;27.33;10.60;;;-0.70;99.90;;;;;;2049053;29;20123;-72
2022/02/24 04:08:29;;;;;;;25.60;10.32;;;-0.70;99.90;;;;;;2057063;28;20131;-74
2022/02/24 04:09:30;;;;;;;24.50;10.20;;;-0.70;99.90;;;;;;2048440;28;20122;-74
2022/02/24 04:10:31;;;;;;;24.00;10.02;;;-0.70;99.90;;;;;;2049456;29;20027;-72
2022/02/24 04:11:31;;;;;;;24.50;10.40;;;-0.70;99.90;;;;;;2049831;29;20046;-73
2022/02/24 04:12:33;;;;;;;22.45;11.20;;;-0.70;99.90;;;;;;2049614;28;20042;-72
2022/02/24 04:13:34;;;;;;;23.40;10.95;;;-0.70;99.90;;;;;;2049570;28;20027;-73
2022/02/24 04:14:36;;;;;;;21.00;11.13;;;-0.70;99.90;;;;;;2048697;28;20110;-73
2022/02/24 04:15:37;;;;;;;21.75;10.45;;;-0.60;99.90;;;;;;2049227;29;20039;-73
2022/02/24 04:16:38;;;;;;;24.60;10.77;;;-0.60;99.90;;;;;;2049049;29;20024;-72
2022/02/24 04:17:39;;;;;;;18.80;10.27;;;-0.60;99.90;;;;;;2048967;29;20031;-72
2022/02/24 04:18:39;;;;;;;25.00;10.95;;;-0.60;99.90;;;;;;2056899;28;20030;-72
2022/02/24 04:19:40;;;;;;;22.83;10.45;;;-0.60;99.90;;;;;;2056500;28;20470;-72
2022/02/24 04:20:41;;;;;;;20.13;9.98;;;-0.60;99.90;;;;;;2057016;28;20037;-73
2022/02/24 04:21:41;;;;;;;25.60;11.10;;;-0.50;99.90;;;;;;2049937;28;20042;-72
2022/02/24 04:22:42;;;;;;;24.80;10.77;;;-0.50;99.90;;;;;;2051530;28;20755;-73
2022/02/24 04:23:43;;;;;;;24.88;10.80;;;-0.50;99.90;;;;;;2051740;29;20491;-73
2022/02/24 04:24:43;;;;;;;22.70;9.95;;;-0.50;99.90;;;;;;2051713;29;20027;-74
2022/02/24 04:25:44;;;;;;;21.02;10.23;;;-0.50;99.90;;;;;;2052092;28;20031;-74
2022/02/24 04:26:45;;;;;;;25.05;10.25;;;-0.50;99.90;;;;;;2052197;28;20027;-73
2022/02/24 04:27:50;;;;;;;20.38;10.13;;;-0.50;99.90;;;;;;2059817;28;20035;-72
2022/02/24 04:28:50;;;;;;;28.45;10.85;;;-0.50;99.90;;;;;;2060352;28;20027;-73
2022/02/24 04:29:51;;;;;;;27.60;11.13;;;-0.50;99.90;;;;;;2052473;28;20063;-74
2022/02/24 04:30:51;;;;;;;30.27;11.52;;;-0.50;99.90;;;;;;2052894;28;20034;-74
2022/02/24 04:31:52;;;;;;;29.05;11.65;;;-0.50;99.90;;;;;;2052512;28;20043;-74
2022/02/24 04:32:53;;;;;;;31.17;12.23;;;-0.50;99.90;;;;;;2052514;29;20035;-73
2022/02/24 04:33:54;;;;;;;26.55;11.60;;;-0.40;99.90;;;;;;2051587;29;20027;-72
2022/02/24 04:34:55;;;;;;;23.88;11.45;;;-0.40;99.90;;;;;;2052587;28;20535;-74
2022/02/24 04:35:55;;;;;;;29.30;11.38;;;-0.40;99.90;;;;;;2052768;29;20054;-73
2022/02/24 04:36:56;;;;;;;26.48;12.20;;;-0.40;99.90;;;;;;2052869;29;20038;-73
2022/02/24 04:37:57;;;;;;;27.98;11.95;;;-0.40;99.90;;;;;;2053180;28;20063;-73
2022/02/24 04:38:57;;;;;;;24.40;11.10;;;-0.40;99.90;;;;;;2053050;28;20035;-73
2022/02/24 04:39:58;;;;;;;27.05;12.15;;;-0.40;99.90;;;;;;2051730;28;20070;-75
2022/02/24 04:40:59;;;;;;;21.38;10.95;;;-0.40;99.90;;;;;;2052610;28;20106;-74
2022/02/24 04:41:59;;;;;;;21.02;11.13;;;-0.40;99.90;;;;;;2052027;28;20086;-73
2022/02/24 04:43:00;;;;;;;23.33;10.18;;;-0.40;99.90;;;;;;2051456;28;20483;-72
2022/02/24 04:44:01;;;;;;;20.75;10.23;;;-0.40;99.90;;;;;;2050115;29;20090;-74
2022/02/24 04:45:01;;;;;;;21.10;10.65;;;-0.40;99.90;;;;;;2051693;28;20121;-75
2022/02/24 04:46:02;;;;;;;22.70;10.65;;;-0.30;99.90;;;;;;2052252;28;20031;-76
2022/02/24 04:47:03;;;;;;;23.25;10.90;;;-0.40;99.90;;;;;;2051589;28;20551;-75
2022/02/24 04:48:04;;;;;;;20.10;10.65;;;-0.40;99.90;;;;;;2051439;28;20047;-73
2022/02/24 04:49:04;;;;;;;19.20;10.73;;;-0.30;99.90;;;;;;2051361;28;20037;-72
2022/02/24 04:50:08;;;;;;;22.70;10.52;;;-0.40;99.90;;;;;;2051015;28;20086;-74
2022/02/24 04:51:09;;;;;;;22.05;10.40;;;-0.30;99.90;;;;;;2051973;29;20569;-74
2022/02/24 04:52:09;;;;;;;20.15;10.23;;;-0.30;99.90;;;;;;2051878;28;20031;-74
2022/02/24 04:53:10;;;;;;;19.15;9.88;;;-0.30;99.90;;;;;;2051740;28;20034;-73
2022/02/24 04:54:11;;;;;;;21.33;10.35;;;-0.30;99.90;;;;;;2050778;29;20031;-74
2022/02/24 04:55:11;;;;;;;20.67;10.77;;;-0.30;99.90;;;;;;2051248;28;20058;-75
2022/02/24 04:56:12;;;;;;;24.35;11.23;;;-0.30;99.90;;;;;;2050115;28;20143;-73
2022/02/24 04:57:13;;;;;;;23.67;10.73;;;-0.20;99.90;;;;;;2050198;29;20027;-74
2022/02/24 04:58:14;;;;;;;24.15;10.52;;;-0.20;99.90;;;;;;2058487;28;20521;-74
2022/02/24 04:59:14;;;;;;;22.75;10.23;;;-0.20;99.90;;;;;;2051300;29;20027;-73
2022/02/24 05:00:15;;;;;;;20.83;9.80;;;-0.10;99.90;;;;;;2049933;29;20027;-76
2022/02/24 05:01:16;;;;;;;22.20;10.38;;;-0.10;99.90;;;;;;2058221;28;20039;-75
2022/02/24 05:02:17;;;;;;;17.50;9.63;;;-0.10;99.90;;;;;;2058430;28;20035;-72
2022/02/24 05:03:17;;;;;;;20.35;9.75;;;-0.10;99.90;;;;;;2058643;28;20524;-73
2022/02/24 05:04:18;;;;;;;17.75;10.07;;;-0.10;99.90;;;;;;2058287;28;20698;-73
2022/02/24 05:05:19;;;;;;;16.85;9.25;;;-0.20;99.90;;;;;;2058525;28;20097;-73
2022/02/24 05:06:19;;;;;;;16.80;9.00;;;-0.20;99.90;;;;;;2058078;28;20030;-74
2022/02/24 05:07:20;;;;;;;18.33;9.20;;;-0.20;99.90;;;;;;2050722;28;20058;-74
2022/02/24 05:08:21;;;;;;;19.38;10.50;;;-0.20;99.90;;;;;;2050115;28;20062;-73
2022/02/24 05:09:21;;;;;;;18.55;9.77;;;-0.20;99.90;;;;;;2050495;29;20119;-74
2022/02/24 05:10:22;;;;;;;24.65;11.68;;;-0.20;99.90;;;;;;2050858;28;20036;-74
2022/02/24 05:11:23;;;;;;;21.10;10.57;;;-0.20;99.90;;;;;;2051534;28;20360;-75
2022/02/24 05:12:23;;;;;;;21.70;10.40;;;-0.10;99.90;;;;;;2051299;28;20517;-73
2022/02/24 05:13:24;;;;;;;22.17;9.68;;;-0.10;99.90;;;;;;2051662;28;20042;-74